Time;durP1;ratioP1;P1;durP2;ratioP2;P2;SDS_P1;SDS_P2;PMS_P1;PMS_P2;Temp;Humidity;BMP_temperature;BMP_pressure;BME280_temperature;BME280_humidity;BME280_pressure;Samples;Min_cycle;Max_cycle;Signal;HPM_P1;HPM_P2
2023/06/29 00:01:12;;;;;;;;;;;;;;;16.11;77.81;101014.11;107495;1256;59456;-83
2023/06/29 00:03:59;;;;;;;;;;;;;;;16.10;77.91;101019.79;107555;1255;61199;-83
2023/06/29 00:06:27;;;;;;;;;;;;;;;16.10;78.08;101020.31;107542;1257;124739;-82
2023/06/29 00:08:55;;;;;;;;;;;;;;;16.10;78.21;101023.67;107667;1254;66798;-83
2023/06/29 00:11:22;;;;;;;;;;;;;;;16.10;78.30;101022.09;107700;1259;124932;-82
2023/06/29 00:13:49;;;;;;;;;;;;;;;16.10;78.36;101021.38;107597;1259;61250;-83
2023/06/29 00:16:17;;;;;;;;;;;;;;;16.11;78.53;101020.14;107565;1259;125182;-83
2023/06/29 00:18:55;;;;;;;;;;;;;;;16.11;78.67;101016.77;107461;1257;74681;-83
2023/06/29 00:21:22;;;;;;;;;;;;;;;16.11;78.66;101016.08;107542;1257;66784;-82
2023/06/29 00:23:57;;;;;;;;;;;;;;;16.11;78.68;101015.18;107541;1255;125173;-82
2023/06/29 00:26:29;;;;;;;;;;;;;;;16.11;78.86;101015.18;107762;1257;61153;-83
2023/06/29 00:29:00;;;;;;;;;;;;;;;16.11;78.69;101016.06;107589;1254;125642;-82
2023/06/29 00:31:36;;;;;;;;;;;;;;;16.11;78.99;101014.12;107490;1257;74772;-83
2023/06/29 00:34:10;;;;;;;;;;;;;;;16.08;78.81;101012.15;107838;1256;65735;-83
2023/06/29 00:36:40;;;;;;;;;;;;;;;16.09;78.96;101010.91;108016;1255;72536;-82
2023/06/29 00:39:09;;;;;;;;;;;;;;;16.10;79.01;101008.98;107720;1258;61251;-82
2023/06/29 00:41:38;;;;;;;;;;;;;;;16.10;79.14;101013.94;107526;1256;125103;-82
2023/06/29 00:44:13;;;;;;;;;;;;;;;16.09;79.17;101014.12;107558;1254;73413;-82
2023/06/29 00:46:40;;;;;;;;;;;;;;;16.09;79.24;101015.34;107359;1257;125395;-82
2023/06/29 00:49:07;;;;;;;;;;;;;;;16.09;79.19;101017.64;107873;1253;71820;-83
2023/06/29 00:51:41;;;;;;;;;;;;;;;16.08;79.24;101016.39;107790;1254;60539;-83
2023/06/29 00:54:16;;;;;;;;;;;;;;;16.07;79.27;101012.32;107360;1255;124797;-83
2023/06/29 00:56:43;;;;;;;;;;;;;;;16.06;79.27;101008.77;107251;1257;74745;-83
2023/06/29 00:59:11;;;;;;;;;;;;;;;16.07;79.32;101014.27;107126;1261;125012;-83
2023/06/29 01:01:40;;;;;;;;;;;;;;;16.06;79.35;101010.73;107367;1254;71189;-83
2023/06/29 01:04:24;;;;;;;;;;;;;;;16.04;79.47;101009.30;107409;1255;60756;-82
2023/06/29 01:06:54;;;;;;;;;;;;;;;16.03;79.38;101005.75;107554;1254;60300;-83
2023/06/29 01:09:21;;;;;;;;;;;;;;;16.02;79.48;101004.14;107794;1257;74712;-83
2023/06/29 01:11:50;;;;;;;;;;;;;;;16.01;79.51;101006.80;107789;1260;125401;-82
2023/06/29 01:14:19;;;;;;;;;;;;;;;16.00;79.62;101001.84;107956;1254;72536;-82
2023/06/29 01:16:48;;;;;;;;;;;;;;;16.00;79.67;101001.30;107327;1260;125697;-82
2023/06/29 01:19:23;;;;;;;;;;;;;;;15.99;79.70;101001.29;107775;1257;59888;-82
2023/06/29 01:22:02;;;;;;;;;;;;;;;15.97;79.76;100997.21;107527;1256;75135;-82
2023/06/29 01:24:40;;;;;;;;;;;;;;;15.97;79.80;100998.79;107579;1254;124636;-82
2023/06/29 01:27:07;;;;;;;;;;;;;;;15.96;79.82;100997.02;107743;1254;73102;-81
2023/06/29 01:29:35;;;;;;;;;;;;;;;15.94;79.80;100992.05;107633;1258;124773;-81
2023/06/29 01:32:03;;;;;;;;;;;;;;;15.93;79.88;100991.52;107874;1254;60366;-82
2023/06/29 01:34:32;;;;;;;;;;;;;;;15.93;79.99;100993.47;107447;1260;125569;-83
2023/06/29 01:37:02;;;;;;;;;;;;;;;15.92;80.05;100993.11;107715;1254;66727;-82
2023/06/29 01:39:32;;;;;;;;;;;;;;;15.92;80.04;100991.69;107723;1258;71065;-81
2023/06/29 01:42:04;;;;;;;;;;;;;;;15.92;80.18;100990.63;107317;1254;125487;-81
2023/06/29 01:44:32;;;;;;;;;;;;;;;15.92;80.17;100989.03;107590;1260;59838;-82
2023/06/29 01:47:07;;;;;;;;;;;;;;;15.91;80.27;100984.23;107435;1257;125463;-82
2023/06/29 01:49:36;;;;;;;;;;;;;;;15.91;80.36;100983.36;107630;1254;65427;-83
2023/06/29 01:52:04;;;;;;;;;;;;;;;15.91;80.37;100983.54;107727;1254;72453;-81
2023/06/29 01:54:31;;;;;;;;;;;;;;;15.91;80.34;100983.71;107407;1255;125441;-82
2023/06/29 01:56:58;;;;;;;;;;;;;;;15.90;80.39;100983.36;107678;1254;59368;-82
2023/06/29 01:59:25;;;;;;;;;;;;;;;15.90;80.37;100979.99;107700;1257;124905;-82
2023/06/29 02:01:52;;;;;;;;;;;;;;;15.90;80.45;100980.70;107613;1257;66979;-82
2023/06/29 02:04:19;;;;;;;;;;;;;;;15.90;80.54;100979.30;107614;1258;73864;-83
2023/06/29 02:06:46;;;;;;;;;;;;;;;15.90;80.50;100978.23;107498;1258;61381;-83
2023/06/29 02:09:15;;;;;;;;;;;;;;;15.91;80.47;100975.75;107608;1256;62165;-82
2023/06/29 02:11:42;;;;;;;;;;;;;;;15.91;80.43;100975.56;107578;1261;124890;-83
2023/06/29 02:14:09;;;;;;;;;;;;;;;15.92;80.56;100973.29;107741;1260;67561;-82
2023/06/29 02:16:36;;;;;;;;;;;;;;;15.93;80.56;100970.46;107648;1259;125076;-83
2023/06/29 02:19:05;;;;;;;;;;;;;;;15.94;80.57;100971.70;107693;1257;61174;-83
2023/06/29 02:21:33;;;;;;;;;;;;;;;15.96;80.50;100973.30;107896;1256;61250;-83
2023/06/29 02:24:07;;;;;;;;;;;;;;;15.97;80.54;100978.62;107560;1255;125112;-84
2023/06/29 02:26:34;;;;;;;;;;;;;;;15.97;80.42;100974.01;107521;1260;65930;-83
2023/06/29 02:29:01;;;;;;;;;;;;;;;15.99;80.46;100973.52;107543;1258;124974;-82
2023/06/29 02:31:29;;;;;;;;;;;;;;;16.01;80.54;100973.16;107686;1254;59299;-81
2023/06/29 02:33:56;;;;;;;;;;;;;;;16.04;80.31;100976.73;107921;1255;60371;-81
2023/06/29 02:36:24;;;;;;;;;;;;;;;16.07;80.29;100973.90;107895;1260;125286;-81
2023/06/29 02:38:51;;;;;;;;;;;;;;;16.12;80.31;100972.88;108260;1257;65761;-81
2023/06/29 02:41:19;;;;;;;;;;;;;;;16.16;80.25;100973.25;108097;1260;125382;-81
2023/06/29 02:43:46;;;;;;;;;;;;;;;16.20;80.11;100973.27;107903;1260;60200;-81
2023/06/29 02:46:15;;;;;;;;;;;;;;;16.25;80.10;100973.30;108150;1254;59414;-81
2023/06/29 02:48:42;;;;;;;;;;;;;;;16.29;80.11;100972.43;107971;1260;125270;-81
2023/06/29 02:51:11;;;;;;;;;;;;;;;16.34;80.01;100974.95;108145;1255;65781;-82
2023/06/29 02:53:38;;;;;;;;;;;;;;;16.41;79.88;100975.14;108123;1260;124743;-81
2023/06/29 02:56:05;;;;;;;;;;;;;;;16.47;79.88;100973.22;107962;1255;61124;-81
2023/06/29 02:58:33;;;;;;;;;;;;;;;16.55;79.73;100978.40;107984;1260;125283;-81
2023/06/29 03:01:00;;;;;;;;;;;;;;;16.63;79.57;100981.44;108224;1254;74659;-81
2023/06/29 03:03:28;;;;;;;;;;;;;;;16.71;79.46;100979.70;107937;1258;64909;-81
2023/06/29 03:05:55;;;;;;;;;;;;;;;16.78;79.47;100979.19;107933;1259;125453;-81
2023/06/29 03:08:22;;;;;;;;;;;;;;;16.86;79.26;100977.47;108058;1256;59704;-81
2023/06/29 03:10:50;;;;;;;;;;;;;;;16.95;79.00;100975.72;108021;1254;123885;-81
2023/06/29 03:13:17;;;;;;;;;;;;;;;17.05;79.01;100977.70;107895;1257;73357;-81
2023/06/29 03:15:44;;;;;;;;;;;;;;;17.15;78.83;100979.30;108122;1257;67175;-80
2023/06/29 03:18:11;;;;;;;;;;;;;;;17.26;78.77;100975.95;107937;1255;125458;-81
2023/06/29 03:20:38;;;;;;;;;;;;;;;17.40;78.60;100981.64;107972;1257;59837;-81
2023/06/29 03:23:05;;;;;;;;;;;;;;;17.53;78.37;100981.65;107996;1257;124795;-81
2023/06/29 03:25:32;;;;;;;;;;;;;;;17.67;78.20;100978.98;107823;1254;73195;-82
2023/06/29 03:28:00;;;;;;;;;;;;;;;17.84;77.99;100982.53;108090;1257;67579;-81
2023/06/29 03:30:28;;;;;;;;;;;;;;;18.06;77.99;100985.18;108055;1254;124799;-82
2023/06/29 03:32:59;;;;;;;;;;;;;;;18.51;78.26;100982.55;108092;1257;61830;-82
2023/06/29 03:35:26;;;;;;;;;;;;;;;19.02;77.74;100979.30;108150;1260;125317;-82
2023/06/29 03:38:07;;;;;;;;;;;;;;;19.31;76.29;100975.38;108138;1255;73370;-82
2023/06/29 03:40:34;;;;;;;;;;;;;;;19.33;75.20;100980.34;108077;1255;65685;-82
2023/06/29 03:43:02;;;;;;;;;;;;;;;19.33;74.89;100977.67;108057;1257;73814;-80
2023/06/29 03:45:30;;;;;;;;;;;;;;;19.42;74.60;100978.85;107616;1256;61858;-81
2023/06/29 03:47:57;;;;;;;;;;;;;;;19.57;74.42;100974.81;107753;1254;125032;-80
2023/06/29 03:50:33;;;;;;;;;;;;;;;19.84;74.20;100976.39;108129;1255;73369;-83
2023/06/29 03:53:02;;;;;;;;;;;;;;;20.83;75.46;100972.71;107877;1255;125040;-83
2023/06/29 03:55:29;;;;;;;;;;;;;;;22.63;75.28;100975.17;107938;1254;72637;-81
2023/06/29 03:57:57;;;;;;;;;;;;;;;24.36;73.11;100972.90;108016;1254;59248;-82
2023/06/29 04:00:25;;;;;;;;;;;;;;;25.85;70.29;100973.29;107638;1254;124582;-85
2023/06/29 04:02:52;;;;;;;;;;;;;;;27.08;67.59;100971.27;107559;1257;74410;-84
2023/06/29 04:05:20;;;;;;;;;;;;;;;28.03;64.72;100968.02;107779;1254;124669;-82
2023/06/29 04:07:47;;;;;;;;;;;;;;;28.92;62.78;100970.10;107986;1257;64609;-83
2023/06/29 04:10:21;;;;;;;;;;;;;;;29.72;60.75;100971.60;107225;1257;61196;-83
2023/06/29 04:12:48;;;;;;;;;;;;;;;30.48;58.53;100977.73;107268;1255;124376;-81
2023/06/29 04:15:15;;;;;;;;;;;;;;;30.69;56.21;100976.41;108101;1257;64486;-82
2023/06/29 04:17:42;;;;;;;;;;;;;;;30.60;54.68;100973.66;107724;1257;124289;-81
2023/06/29 04:20:10;;;;;;;;;;;;;;;30.51;53.77;100970.16;107547;1254;62779;-85
2023/06/29 04:22:43;;;;;;;;;;;;;;;30.78;53.40;100969.38;107498;1255;124868;-83
2023/06/29 04:25:10;;;;;;;;;;;;;;;31.28;52.16;100967.30;107145;1257;241551;-85
2023/06/29 04:27:43;;;;;;;;;;;;;;;31.69;51.37;100969.27;107521;1254;66187;-86
2023/06/29 04:30:11;;;;;;;;;;;;;;;31.81;50.00;100971.23;107632;1257;124209;-82
2023/06/29 04:32:38;;;;;;;;;;;;;;;31.77;49.28;100966.79;107772;1254;64137;-82
2023/06/29 04:35:09;;;;;;;;;;;;;;;31.76;48.85;100964.46;107561;1256;124405;-82
2023/06/29 04:37:42;;;;;;;;;;;;;;;31.94;48.66;100965.59;107917;1260;59831;-79
2023/06/29 04:40:09;;;;;;;;;;;;;;;32.48;48.16;100965.48;107855;1256;66100;-82
2023/06/29 04:42:47;;;;;;;;;;;;;;;33.18;47.12;100962.63;107907;1254;124106;-80
2023/06/29 04:45:17;;;;;;;;;;;;;;;33.48;45.73;100963.33;108880;1257;64197;-81
2023/06/29 04:47:45;;;;;;;;;;;;;;;33.64;45.08;100962.81;108712;1257;124663;-82
2023/06/29 04:50:13;;;;;;;;;;;;;;;34.21;44.63;100966.91;107691;1256;59401;-81
2023/06/29 04:52:40;;;;;;;;;;;;;;;34.91;43.85;100964.45;107360;1260;124576;-81
2023/06/29 04:55:10;;;;;;;;;;;;;;;35.54;42.73;100963.17;107698;1254;59415;-82
2023/06/29 04:57:37;;;;;;;;;;;;;;;35.98;41.59;100964.51;107468;1260;64095;-80
2023/06/29 05:00:10;;;;;;;;;;;;;;;36.45;41.00;100960.10;107288;1260;124017;-82
2023/06/29 05:02:38;;;;;;;;;;;;;;;36.95;40.25;100959.50;107444;1254;62118;-83
2023/06/29 05:05:05;;;;;;;;;;;;;;;37.34;39.32;100962.63;107121;1257;168203;-85
2023/06/29 05:07:34;;;;;;;;;;;;;;;37.82;38.40;100965.35;107486;1254;60869;-81
2023/06/29 05:10:01;;;;;;;;;;;;;;;38.36;37.67;100964.44;107606;1256;64122;-81
2023/06/29 05:12:28;;;;;;;;;;;;;;;38.75;37.01;100964.48;108191;1256;124673;-82
2023/06/29 05:15:17;;;;;;;;;;;;;;;38.87;36.30;100962.69;107615;1254;60883;-85
2023/06/29 05:17:46;;;;;;;;;;;;;;;38.90;35.34;100963.85;107486;1260;124070;-87
2023/06/29 05:20:25;;;;;;;;;;;;;;;38.76;34.90;100965.30;107383;1254;61378;-84
2023/06/29 05:22:52;;;;;;;;;;;;;;;38.93;34.59;100963.64;107114;1257;124393;-82
2023/06/29 05:25:19;;;;;;;;;;;;;;;39.32;33.97;100962.23;107383;1257;59981;-82
2023/06/29 05:27:46;;;;;;;;;;;;;;;39.57;33.50;100962.86;108217;1254;60130;-82
2023/06/29 05:30:14;;;;;;;;;;;;;;;39.81;33.02;100960.21;107285;1257;124054;-82
2023/06/29 05:32:41;;;;;;;;;;;;;;;40.17;32.77;100959.17;107744;1254;61163;-82
2023/06/29 05:35:09;;;;;;;;;;;;;;;40.36;32.11;100958.59;107616;1254;124797;-85
2023/06/29 05:37:40;;;;;;;;;;;;;;;40.66;31.47;100956.19;107431;1254;61038;-87
2023/06/29 05:40:08;;;;;;;;;;;;;;;41.03;31.44;100958.19;107453;1254;59573;-85
2023/06/29 05:42:41;;;;;;;;;;;;;;;41.60;30.99;100958.89;107538;1257;124278;-87
2023/06/29 05:45:08;;;;;;;;;;;;;;;41.36;30.08;100960.08;107458;1257;61532;-82
2023/06/29 05:47:38;;;;;;;;;;;;;;;39.86;29.54;100959.64;107511;1257;62765;-83
2023/06/29 05:50:06;;;;;;;;;;;;;;;37.83;30.00;100958.39;107477;1254;61075;-82
2023/06/29 05:52:33;;;;;;;;;;;;;;;35.93;30.82;100957.39;107243;1254;61246;-82
2023/06/29 05:55:01;;;;;;;;;;;;;;;34.28;31.94;100956.20;107216;1256;66561;-82
2023/06/29 05:57:29;;;;;;;;;;;;;;;33.03;33.10;100958.50;107376;1259;59885;-82
2023/06/29 05:59:56;;;;;;;;;;;;;;;31.90;34.08;100961.61;107714;1254;62625;-82
2023/06/29 06:02:23;;;;;;;;;;;;;;;31.04;35.20;100961.76;107405;1257;62169;-82
2023/06/29 06:04:52;;;;;;;;;;;;;;;30.36;36.05;100966.40;107284;1254;124446;-82
2023/06/29 06:07:28;;;;;;;;;;;;;;;29.63;36.92;100963.73;107433;1256;66063;-82
2023/06/29 06:09:57;;;;;;;;;;;;;;;29.08;37.80;100968.59;107348;1257;61149;-83
2023/06/29 06:12:26;;;;;;;;;;;;;;;28.53;38.40;100968.69;107525;1254;124041;-82
2023/06/29 06:14:55;;;;;;;;;;;;;;;27.97;39.17;100968.30;107777;1254;61155;-82
2023/06/29 06:17:22;;;;;;;;;;;;;;;27.64;40.01;100967.73;107369;1254;124446;-82
2023/06/29 06:19:49;;;;;;;;;;;;;;;27.48;40.59;100968.24;107181;1256;74493;-82
2023/06/29 06:22:17;;;;;;;;;;;;;;;27.48;41.14;100967.30;107337;1257;64552;-82
2023/06/29 06:24:44;;;;;;;;;;;;;;;27.53;41.42;100962.43;107335;1254;124207;-84
2023/06/29 06:27:11;;;;;;;;;;;;;;;27.45;41.37;100966.19;107460;1254;60472;-82
2023/06/29 06:29:38;;;;;;;;;;;;;;;27.41;41.56;100967.23;107336;1255;124074;-84
2023/06/29 06:32:11;;;;;;;;;;;;;;;27.43;41.99;100970.41;107639;1256;74660;-84
2023/06/29 06:34:38;;;;;;;;;;;;;;;27.37;42.10;100973.90;107601;1257;124834;-82
2023/06/29 06:37:05;;;;;;;;;;;;;;;27.35;42.39;100976.85;107588;1256;71379;-84
2023/06/29 06:39:32;;;;;;;;;;;;;;;27.45;42.49;100975.36;107686;1254;61076;-84
2023/06/29 06:42:00;;;;;;;;;;;;;;;27.44;42.57;100975.95;107349;1260;124237;-83
2023/06/29 06:44:28;;;;;;;;;;;;;;;27.41;42.63;100978.97;107456;1257;73361;-83
2023/06/29 06:47:01;;;;;;;;;;;;;;;27.26;42.60;100979.74;107272;1254;125073;-84
2023/06/29 06:49:28;;;;;;;;;;;;;;;27.10;42.78;100984.68;107455;1256;71445;-83
2023/06/29 06:52:00;;;;;;;;;;;;;;;26.94;42.70;100984.42;107511;1254;61206;-82
2023/06/29 06:54:28;;;;;;;;;;;;;;;26.80;42.64;100985.48;107747;1253;125322;-82
2023/06/29 06:57:06;;;;;;;;;;;;;;;26.65;42.84;100984.45;108636;1254;73555;-82
2023/06/29 06:59:40;;;;;;;;;;;;;;;26.53;43.27;100979.85;108292;1254;124714;-83
2023/06/29 07:02:07;;;;;;;;;;;;;;;26.56;43.30;100983.16;107617;1254;72755;-82
2023/06/29 07:04:35;;;;;;;;;;;;;;;26.60;43.21;100981.80;108617;1256;59250;-82
2023/06/29 07:07:03;;;;;;;;;;;;;;;26.60;43.19;100980.16;107605;1258;60039;-79
2023/06/29 07:09:31;;;;;;;;;;;;;;;26.67;43.17;100980.09;107601;1257;72871;-79
2023/06/29 07:11:59;;;;;;;;;;;;;;;26.78;43.18;100978.59;107679;1254;124215;-79
2023/06/29 07:14:27;;;;;;;;;;;;;;;26.86;43.12;100979.16;107992;1254;72284;-81
2023/06/29 07:16:55;;;;;;;;;;;;;;;26.95;42.74;100976.80;107843;1256;124492;-80
2023/06/29 07:19:23;;;;;;;;;;;;;;;26.93;42.91;100970.59;107708;1257;61399;-80
2023/06/29 07:21:50;;;;;;;;;;;;;;;26.96;42.83;100972.64;107567;1254;75226;-80
2023/06/29 07:24:19;;;;;;;;;;;;;;;26.95;42.88;100973.77;107601;1257;124666;-80
2023/06/29 07:26:46;;;;;;;;;;;;;;;26.92;42.88;100970.84;107873;1256;72735;-80
2023/06/29 07:29:15;;;;;;;;;;;;;;;26.92;43.05;100970.45;108251;1254;124946;-80
2023/06/29 07:31:42;;;;;;;;;;;;;;;26.95;43.02;100976.46;108282;1257;61816;-80
2023/06/29 07:34:10;;;;;;;;;;;;;;;26.95;43.17;100977.16;108282;1254;74479;-80
2023/06/29 07:36:37;;;;;;;;;;;;;;;27.14;43.21;100972.27;108078;1254;124599;-80
2023/06/29 07:39:04;;;;;;;;;;;;;;;27.34;42.98;100969.52;107841;1256;71428;-81
2023/06/29 07:41:31;;;;;;;;;;;;;;;27.46;42.72;100970.62;107492;1256;124290;-80
2023/06/29 07:43:59;;;;;;;;;;;;;;;27.54;42.58;100966.17;107830;1256;61282;-80
2023/06/29 07:46:27;;;;;;;;;;;;;;;27.68;42.64;100964.84;107836;1254;74407;-83
2023/06/29 07:48:55;;;;;;;;;;;;;;;27.88;42.41;100962.02;107374;1256;124754;-83
2023/06/29 07:51:23;;;;;;;;;;;;;;;28.02;41.84;100964.83;107468;1256;72837;-83
2023/06/29 07:53:50;;;;;;;;;;;;;;;28.01;41.59;100964.34;107380;1258;124105;-83
2023/06/29 07:56:18;;;;;;;;;;;;;;;27.90;41.37;100959.92;107535;1254;59597;-82
2023/06/29 07:58:51;;;;;;;;;;;;;;;27.70;41.02;100958.27;107495;1256;124713;-82
2023/06/29 08:01:19;;;;;;;;;;;;;;;27.48;41.00;100954.52;107621;1254;67144;-83
2023/06/29 08:03:52;;;;;;;;;;;;;;;27.36;40.94;100957.21;107513;1257;72741;-83
2023/06/29 08:06:19;;;;;;;;;;;;;;;27.30;41.03;100955.82;107389;1256;124224;-83
2023/06/29 08:08:46;;;;;;;;;;;;;;;27.29;41.18;100953.89;107437;1254;62212;-83
2023/06/29 08:11:17;;;;;;;;;;;;;;;27.21;40.74;100949.13;107445;1260;124662;-82
2023/06/29 08:13:44;;;;;;;;;;;;;;;27.01;40.99;100949.38;107685;1256;64906;-83
2023/06/29 08:16:12;;;;;;;;;;;;;;;26.86;40.98;100950.73;107573;1257;71356;-83
2023/06/29 08:18:39;;;;;;;;;;;;;;;26.78;41.32;100950.13;107426;1256;124958;-83
2023/06/29 08:21:06;;;;;;;;;;;;;;;26.70;41.25;100952.06;107576;1254;61345;-83
2023/06/29 08:23:34;;;;;;;;;;;;;;;26.60;41.60;100953.88;108421;1257;124250;-83
2023/06/29 08:26:03;;;;;;;;;;;;;;;26.53;41.41;100956.65;107334;1257;67079;-83
2023/06/29 08:28:32;;;;;;;;;;;;;;;26.44;41.31;100954.31;107375;1257;71147;-83
2023/06/29 08:30:59;;;;;;;;;;;;;;;26.27;41.41;100954.21;107577;1256;123881;-83
2023/06/29 08:33:27;;;;;;;;;;;;;;;26.01;41.45;100955.13;107963;1256;61210;-83
2023/06/29 08:35:56;;;;;;;;;;;;;;;25.86;41.30;100954.94;107338;1256;124827;-83
2023/06/29 08:38:29;;;;;;;;;;;;;;;25.73;41.90;100951.42;107467;1255;65866;-84
2023/06/29 08:41:01;;;;;;;;;;;;;;;25.64;41.78;100952.82;107394;1256;124313;-84
2023/06/29 08:43:28;;;;;;;;;;;;;;;25.46;41.87;100949.48;107559;1255;60995;-82
2023/06/29 08:45:57;;;;;;;;;;;;;;;25.36;42.13;100954.46;108910;1256;58986;-82
2023/06/29 08:48:27;;;;;;;;;;;;;;;25.33;42.26;100952.04;107254;1257;124143;-83
2023/06/29 08:50:58;;;;;;;;;;;;;;;25.32;42.25;100952.47;107571;1257;65491;-83
2023/06/29 08:53:25;;;;;;;;;;;;;;;25.27;42.08;100953.70;107301;1254;124480;-83
2023/06/29 08:55:53;;;;;;;;;;;;;;;25.23;42.41;100952.55;107513;1255;61385;-83
2023/06/29 08:58:20;;;;;;;;;;;;;;;25.22;42.20;100954.89;107844;1257;60982;-83
2023/06/29 09:00:53;;;;;;;;;;;;;;;25.20;42.26;100951.91;107211;1254;124145;-83
2023/06/29 09:03:28;;;;;;;;;;;;;;;25.20;42.49;100949.42;107149;1256;65566;-83
2023/06/29 09:05:55;;;;;;;;;;;;;;;25.26;42.51;100951.23;107365;1256;124789;-83
2023/06/29 09:08:24;;;;;;;;;;;;;;;25.26;42.33;100953.22;107725;1259;59566;-83
2023/06/29 09:10:51;;;;;;;;;;;;;;;25.21;42.04;100952.24;107537;1257;125061;-83
2023/06/29 09:13:19;;;;;;;;;;;;;;;25.11;41.65;100953.29;107717;1256;74675;-83
2023/06/29 09:15:48;;;;;;;;;;;;;;;25.08;41.82;100955.02;107836;1254;67558;-83
2023/06/29 09:18:19;;;;;;;;;;;;;;;25.03;41.79;100954.79;107850;1255;124654;-82
2023/06/29 09:20:47;;;;;;;;;;;;;;;25.01;42.22;100953.98;107688;1256;59703;-83
2023/06/29 09:23:15;;;;;;;;;;;;;;;25.05;42.60;100950.98;107265;1254;124888;-83
2023/06/29 09:25:48;;;;;;;;;;;;;;;25.11;42.82;100945.93;107585;1253;74440;-83
2023/06/29 09:28:16;;;;;;;;;;;;;;;25.20;43.11;100951.20;107481;1257;65664;-83
2023/06/29 09:30:44;;;;;;;;;;;;;;;25.30;43.02;100953.77;107488;1256;124205;-83
2023/06/29 09:33:11;;;;;;;;;;;;;;;25.42;42.91;100947.65;108057;1254;60965;-83
2023/06/29 09:35:46;;;;;;;;;;;;;;;25.48;42.76;100949.79;107930;1255;124519;-84
2023/06/29 09:38:16;;;;;;;;;;;;;;;25.51;42.60;100943.02;107771;1255;73591;-83
2023/06/29 09:40:47;;;;;;;;;;;;;;;25.59;42.49;100952.63;107633;1254;124878;-83
2023/06/29 09:43:35;;;;;;;;;;;;;;;25.69;42.21;100949.77;107650;1254;70719;-83
2023/06/29 09:46:07;;;;;;;;;;;;;;;25.72;41.73;100949.50;107618;1253;60515;-84
2023/06/29 09:48:42;;;;;;;;;;;;;;;25.67;41.69;100946.42;107279;1254;124315;-83
2023/06/29 09:51:22;;;;;;;;;;;;;;;25.66;41.60;100949.34;107338;1254;74662;-83
2023/06/29 09:53:51;;;;;;;;;;;;;;;25.66;41.32;100948.79;107316;1256;124926;-84
2023/06/29 09:56:20;;;;;;;;;;;;;;;25.71;41.27;100945.05;107965;1255;72660;-83
2023/06/29 09:59:00;;;;;;;;;;;;;;;25.76;41.30;100945.38;107368;1254;124438;-83
2023/06/29 10:01:28;;;;;;;;;;;;;;;25.79;41.13;100946.88;107744;1254;61215;-85
2023/06/29 10:03:56;;;;;;;;;;;;;;;25.81;41.32;100942.88;107781;1256;74813;-84
2023/06/29 10:06:31;;;;;;;;;;;;;;;25.84;41.57;100942.23;107485;1256;124264;-85
2023/06/29 10:08:58;;;;;;;;;;;;;;;25.89;41.59;100948.54;107562;1257;72375;-85
2023/06/29 10:11:29;;;;;;;;;;;;;;;25.89;41.63;100951.94;107258;1254;124740;-84
2023/06/29 10:14:02;;;;;;;;;;;;;;;25.90;41.69;100950.27;107740;1257;60465;-82
2023/06/29 10:16:32;;;;;;;;;;;;;;;25.92;41.74;100952.05;107493;1260;73379;-82
2023/06/29 10:19:26;;;;;;;;;;;;;;;25.91;41.63;100950.25;107545;1256;124094;-82
2023/06/29 10:21:56;;;;;;;;;;;;;;;25.89;41.74;100949.61;107539;1255;72762;-82
2023/06/29 10:24:25;;;;;;;;;;;;;;;25.86;41.80;100944.69;107569;1254;124159;-82
2023/06/29 10:26:52;;;;;;;;;;;;;;;25.85;41.76;100940.98;107537;1255;61093;-82
2023/06/29 10:29:25;;;;;;;;;;;;;;;25.84;41.68;100938.30;107346;1256;124439;-82
2023/06/29 10:31:57;;;;;;;;;;;;;;;25.84;41.67;100940.07;107704;1257;66945;-80
2023/06/29 10:34:25;;;;;;;;;;;;;;;25.82;41.25;100936.02;107576;1257;71455;-80
2023/06/29 10:36:53;;;;;;;;;;;;;;;25.83;40.96;100943.70;107733;1257;124113;-80
2023/06/29 10:39:43;;;;;;;;;;;;;;;25.84;41.05;100942.61;107651;1255;60122;-80
2023/06/29 10:42:14;;;;;;;;;;;;;;;25.92;41.12;100942.52;107389;1257;124353;-79
2023/06/29 10:44:42;;;;;;;;;;;;;;;25.95;41.01;100939.70;107679;1257;67396;-79
2023/06/29 10:47:24;;;;;;;;;;;;;;;26.02;41.22;100939.48;107413;1256;124541;-79
2023/06/29 10:49:55;;;;;;;;;;;;;;;26.11;41.42;100939.70;107377;1255;59614;-81
2023/06/29 10:52:25;;;;;;;;;;;;;;;26.18;41.58;100936.91;107528;1256;60124;-80
2023/06/29 10:55:26;;;;;;;;;;;;;;;26.29;41.77;100934.89;107373;1256;124582;-80
2023/06/29 10:57:52;;;;;;;;;;;;;;;26.32;41.42;100933.34;108475;1262;65835;-80
2023/06/29 11:00:20;;;;;;;;;;;;;;;26.30;41.24;100926.00;108437;1263;124886;-80
2023/06/29 11:02:48;;;;;;;;;;;;;;;26.34;41.13;100930.71;108593;1262;59571;-81
2023/06/29 11:05:16;;;;;;;;;;;;;;;26.31;40.90;100932.84;108463;1262;124802;-81
2023/06/29 11:07:43;;;;;;;;;;;;;;;26.29;40.72;100929.13;108545;1262;74812;-81
2023/06/29 11:10:10;;;;;;;;;;;;;;;26.21;40.59;100927.28;108622;1262;67106;-81
2023/06/29 11:12:38;;;;;;;;;;;;;;;26.14;40.97;100924.09;107041;1262;124244;-80
2023/06/29 11:15:08;;;;;;;;;;;;;;;26.20;40.90;100927.13;107165;1262;61235;-83
2023/06/29 11:17:35;;;;;;;;;;;;;;;26.26;40.98;100925.46;107219;1262;124634;-81
2023/06/29 11:20:02;;;;;;;;;;;;;;;26.31;41.10;100928.14;106896;1262;74471;-83
2023/06/29 11:22:36;;;;;;;;;;;;;;;26.36;41.11;100926.86;106813;1262;67340;-83
2023/06/29 11:25:09;;;;;;;;;;;;;;;26.43;41.14;100927.34;106811;1262;72647;-83
2023/06/29 11:27:36;;;;;;;;;;;;;;;26.49;40.97;100921.70;106992;1264;61516;-83
2023/06/29 11:30:07;;;;;;;;;;;;;;;26.53;40.88;100921.90;107460;1262;124471;-83
2023/06/29 11:32:34;;;;;;;;;;;;;;;26.53;40.47;100916.33;107101;1262;73397;-83
2023/06/29 11:35:04;;;;;;;;;;;;;;;26.53;40.01;100920.81;107546;1254;124503;-83
2023/06/29 11:37:32;;;;;;;;;;;;;;;26.52;39.81;100917.98;107779;1257;70092;-84
2023/06/29 11:40:14;;;;;;;;;;;;;;;26.56;39.65;100918.19;109118;1254;59040;-83
2023/06/29 11:42:44;;;;;;;;;;;;;;;26.64;39.34;100920.62;107506;1254;125078;-82
2023/06/29 11:45:13;;;;;;;;;;;;;;;26.68;39.08;100917.77;107511;1256;74710;-83
2023/06/29 11:47:41;;;;;;;;;;;;;;;26.68;38.82;100920.83;107316;1257;124520;-82
2023/06/29 11:50:10;;;;;;;;;;;;;;;26.63;38.41;100918.33;107531;1257;71149;-83
2023/06/29 11:52:38;;;;;;;;;;;;;;;26.69;38.72;100919.34;107798;1256;59261;-83
2023/06/29 11:55:13;;;;;;;;;;;;;;;26.78;38.50;100917.39;107917;1259;60932;-83
2023/06/29 11:57:45;;;;;;;;;;;;;;;26.81;38.23;100917.09;107686;1256;74670;-83
2023/06/29 12:00:11;;;;;;;;;;;;;;;26.86;38.44;100910.02;107646;1255;124606;-84
2023/06/29 12:02:42;;;;;;;;;;;;;;;27.01;38.53;100911.58;107786;1254;72500;-83
2023/06/29 12:05:09;;;;;;;;;;;;;;;27.19;38.23;100910.10;107668;1255;124966;-83
2023/06/29 12:07:40;;;;;;;;;;;;;;;27.35;38.12;100909.66;107784;1256;61231;-83
2023/06/29 12:10:12;;;;;;;;;;;;;;;27.55;38.00;100911.71;107933;1254;74649;-82
2023/06/29 12:12:42;;;;;;;;;;;;;;;27.67;37.81;100909.38;107930;1256;124939;-83
2023/06/29 12:15:14;;;;;;;;;;;;;;;27.67;37.55;100907.02;107728;1255;73172;-83
2023/06/29 12:17:44;;;;;;;;;;;;;;;27.61;37.33;100908.92;107658;1254;124480;-83
2023/06/29 12:20:13;;;;;;;;;;;;;;;27.34;37.01;100904.30;107713;1254;61237;-82
2023/06/29 12:22:43;;;;;;;;;;;;;;;27.08;37.26;100905.69;107499;1260;72394;-82
2023/06/29 12:25:13;;;;;;;;;;;;;;;26.90;37.43;100903.02;107467;1257;67116;-82
2023/06/29 12:27:41;;;;;;;;;;;;;;;26.81;37.70;100905.56;107814;1254;71341;-84
2023/06/29 12:30:09;;;;;;;;;;;;;;;26.76;37.57;100907.54;107465;1254;124318;-84
2023/06/29 12:32:36;;;;;;;;;;;;;;;26.62;37.69;100901.61;107503;1256;62294;-84
2023/06/29 12:35:03;;;;;;;;;;;;;;;26.51;37.84;100899.69;107612;1256;124543;-81